sensor_id;sensor_type;location;lat;lon;timestamp;P1;durP1;ratioP1;P2;durP2;ratioP2
33138;SDS011;19501;50.948;5.316;2022-12-13T00:01:52;63.47;;;27.23;;
33138;SDS011;19501;50.948;5.316;2022-12-13T00:04:21;63.78;;;27.85;;
33138;SDS011;19501;50.948;5.316;2022-12-13T00:06:48;59.88;;;27.45;;
33138;SDS011;19501;50.948;5.316;2022-12-13T00:09:16;65.78;;;27.85;;
33138;SDS011;19501;50.948;5.316;2022-12-13T00:11:45;63.78;;;27.25;;
33138;SDS011;19501;50.948;5.316;2022-12-13T00:14:13;64.78;;;28.10;;
33138;SDS011;19501;50.948;5.316;2022-12-13T00:16:39;54.38;;;25.60;;
33138;SDS011;19501;50.948;5.316;2022-12-13T00:19:09;61.75;;;27.10;;
33138;SDS011;19501;50.948;5.316;2022-12-13T00:21:35;55.85;;;26.33;;
33138;SDS011;19501;50.948;5.316;2022-12-13T00:24:01;66.55;;;27.80;;
33138;SDS011;19501;50.948;5.316;2022-12-13T00:26:30;58.58;;;26.40;;
33138;SDS011;19501;50.948;5.316;2022-12-13T00:29:00;68.03;;;27.05;;
33138;SDS011;19501;50.948;5.316;2022-12-13T00:31:27;59.65;;;25.77;;
33138;SDS011;19501;50.948;5.316;2022-12-13T00:33:55;63.15;;;27.02;;
33138;SDS011;19501;50.948;5.316;2022-12-13T00:36:22;60.58;;;27.13;;
33138;SDS011;19501;50.948;5.316;2022-12-13T00:38:47;57.03;;;25.13;;
33138;SDS011;19501;50.948;5.316;2022-12-13T00:41:24;56.67;;;24.45;;
33138;SDS011;19501;50.948;5.316;2022-12-13T00:43:51;60.20;;;26.42;;
33138;SDS011;19501;50.948;5.316;2022-12-13T00:46:18;58.17;;;25.98;;
33138;SDS011;19501;50.948;5.316;2022-12-13T00:48:50;57.58;;;24.95;;
33138;SDS011;19501;50.948;5.316;2022-12-13T00:51:18;55.50;;;25.40;;
33138;SDS011;19501;50.948;5.316;2022-12-13T00:53:45;57.72;;;24.45;;
33138;SDS011;19501;50.948;5.316;2022-12-13T00:56:12;55.50;;;24.80;;
33138;SDS011;19501;50.948;5.316;2022-12-13T00:58:40;61.08;;;26.65;;
33138;SDS011;19501;50.948;5.316;2022-12-13T01:01:07;58.35;;;25.80;;
33138;SDS011;19501;50.948;5.316;2022-12-13T01:03:35;59.70;;;24.92;;
33138;SDS011;19501;50.948;5.316;2022-12-13T01:06:07;57.55;;;24.15;;
33138;SDS011;19501;50.948;5.316;2022-12-13T01:08:38;61.53;;;25.40;;
33138;SDS011;19501;50.948;5.316;2022-12-13T01:11:05;61.08;;;25.45;;
33138;SDS011;19501;50.948;5.316;2022-12-13T01:13:31;69.00;;;27.15;;
33138;SDS011;19501;50.948;5.316;2022-12-13T01:15:57;63.05;;;26.92;;
33138;SDS011;19501;50.948;5.316;2022-12-13T01:18:25;56.28;;;25.17;;
33138;SDS011;19501;50.948;5.316;2022-12-13T01:20:57;56.03;;;24.23;;
33138;SDS011;19501;50.948;5.316;2022-12-13T01:23:28;56.42;;;24.38;;
33138;SDS011;19501;50.948;5.316;2022-12-13T01:25:55;52.45;;;23.25;;
33138;SDS011;19501;50.948;5.316;2022-12-13T01:28:21;56.58;;;26.13;;
33138;SDS011;19501;50.948;5.316;2022-12-13T01:31:20;55.47;;;24.05;;
33138;SDS011;19501;50.948;5.316;2022-12-13T01:33:41;59.33;;;24.40;;
33138;SDS011;19501;50.948;5.316;2022-12-13T01:36:08;56.58;;;23.98;;
33138;SDS011;19501;50.948;5.316;2022-12-13T01:38:37;52.08;;;23.33;;
33138;SDS011;19501;50.948;5.316;2022-12-13T01:41:02;54.58;;;23.60;;
33138;SDS011;19501;50.948;5.316;2022-12-13T01:43:48;54.10;;;24.85;;
33138;SDS011;19501;50.948;5.316;2022-12-13T01:46:16;55.38;;;23.95;;
33138;SDS011;19501;50.948;5.316;2022-12-13T01:48:47;56.42;;;23.48;;
33138;SDS011;19501;50.948;5.316;2022-12-13T01:51:23;55.85;;;24.30;;
33138;SDS011;19501;50.948;5.316;2022-12-13T01:53:58;54.80;;;23.52;;
33138;SDS011;19501;50.948;5.316;2022-12-13T01:56:33;51.53;;;22.75;;
33138;SDS011;19501;50.948;5.316;2022-12-13T01:59:04;54.22;;;23.00;;
33138;SDS011;19501;50.948;5.316;2022-12-13T02:01:35;52.50;;;21.80;;
33138;SDS011;19501;50.948;5.316;2022-12-13T02:04:01;50.95;;;21.60;;
33138;SDS011;19501;50.948;5.316;2022-12-13T02:06:34;50.47;;;20.30;;
33138;SDS011;19501;50.948;5.316;2022-12-13T02:09:04;52.97;;;20.13;;
33138;SDS011;19501;50.948;5.316;2022-12-13T02:11:31;47.58;;;21.00;;
33138;SDS011;19501;50.948;5.316;2022-12-13T02:14:01;49.90;;;20.20;;
33138;SDS011;19501;50.948;5.316;2022-12-13T02:21:54;45.08;;;17.67;;
33138;SDS011;19501;50.948;5.316;2022-12-13T02:38:34;40.97;;;17.50;;
33138;SDS011;19501;50.948;5.316;2022-12-13T02:46:20;47.58;;;18.73;;
33138;SDS011;19501;50.948;5.316;2022-12-13T02:48:50;47.00;;;20.02;;
33138;SDS011;19501;50.948;5.316;2022-12-13T02:51:19;46.88;;;19.95;;
33138;SDS011;19501;50.948;5.316;2022-12-13T02:53:48;46.30;;;19.77;;
33138;SDS011;19501;50.948;5.316;2022-12-13T02:56:14;43.97;;;19.05;;
33138;SDS011;19501;50.948;5.316;2022-12-13T02:58:41;45.17;;;19.67;;
33138;SDS011;19501;50.948;5.316;2022-12-13T03:01:31;44.70;;;19.40;;
33138;SDS011;19501;50.948;5.316;2022-12-13T03:04:11;49.17;;;20.30;;
33138;SDS011;19501;50.948;5.316;2022-12-13T03:17:56;46.42;;;18.58;;
33138;SDS011;19501;50.948;5.316;2022-12-13T03:20:39;42.67;;;18.33;;
33138;SDS011;19501;50.948;5.316;2022-12-13T03:23:29;43.72;;;17.95;;
33138;SDS011;19501;50.948;5.316;2022-12-13T03:25:57;46.88;;;18.80;;
33138;SDS011;19501;50.948;5.316;2022-12-13T03:28:27;45.83;;;18.88;;
33138;SDS011;19501;50.948;5.316;2022-12-13T03:30:53;46.55;;;18.73;;
33138;SDS011;19501;50.948;5.316;2022-12-13T03:33:19;49.35;;;18.85;;
33138;SDS011;19501;50.948;5.316;2022-12-13T03:35:46;46.22;;;18.27;;
33138;SDS011;19501;50.948;5.316;2022-12-13T03:38:12;50.47;;;18.58;;
33138;SDS011;19501;50.948;5.316;2022-12-13T03:40:39;45.25;;;18.23;;
33138;SDS011;19501;50.948;5.316;2022-12-13T03:43:05;41.10;;;17.23;;
33138;SDS011;19501;50.948;5.316;2022-12-13T03:45:32;42.03;;;17.67;;
33138;SDS011;19501;50.948;5.316;2022-12-13T03:47:57;43.83;;;18.33;;
33138;SDS011;19501;50.948;5.316;2022-12-13T03:50:23;43.00;;;17.23;;
33138;SDS011;19501;50.948;5.316;2022-12-13T03:52:49;42.25;;;17.13;;
33138;SDS011;19501;50.948;5.316;2022-12-13T03:55:16;49.50;;;18.38;;
33138;SDS011;19501;50.948;5.316;2022-12-13T03:57:42;51.88;;;17.85;;
33138;SDS011;19501;50.948;5.316;2022-12-13T04:00:08;42.42;;;18.80;;
33138;SDS011;19501;50.948;5.316;2022-12-13T04:02:35;47.35;;;18.38;;
33138;SDS011;19501;50.948;5.316;2022-12-13T04:05:00;43.95;;;17.30;;
33138;SDS011;19501;50.948;5.316;2022-12-13T04:07:26;50.67;;;18.13;;
33138;SDS011;19501;50.948;5.316;2022-12-13T04:09:51;46.60;;;17.00;;
33138;SDS011;19501;50.948;5.316;2022-12-13T04:12:18;45.72;;;17.73;;
33138;SDS011;19501;50.948;5.316;2022-12-13T04:15:02;42.10;;;16.60;;
33138;SDS011;19501;50.948;5.316;2022-12-13T04:17:28;44.88;;;17.05;;
33138;SDS011;19501;50.948;5.316;2022-12-13T04:19:54;45.17;;;17.75;;
33138;SDS011;19501;50.948;5.316;2022-12-13T04:22:19;41.10;;;16.25;;
33138;SDS011;19501;50.948;5.316;2022-12-13T04:24:45;39.28;;;16.10;;
33138;SDS011;19501;50.948;5.316;2022-12-13T04:27:11;39.95;;;17.52;;
33138;SDS011;19501;50.948;5.316;2022-12-13T04:29:37;40.20;;;15.82;;
33138;SDS011;19501;50.948;5.316;2022-12-13T04:32:03;37.13;;;16.25;;
33138;SDS011;19501;50.948;5.316;2022-12-13T04:34:29;42.83;;;16.77;;
33138;SDS011;19501;50.948;5.316;2022-12-13T04:36:55;45.63;;;17.73;;
33138;SDS011;19501;50.948;5.316;2022-12-13T04:39:20;40.17;;;15.88;;
33138;SDS011;19501;50.948;5.316;2022-12-13T04:41:46;40.42;;;16.25;;
33138;SDS011;19501;50.948;5.316;2022-12-13T04:44:12;42.28;;;16.40;;
33138;SDS011;19501;50.948;5.316;2022-12-13T04:46:37;43.10;;;18.17;;
33138;SDS011;19501;50.948;5.316;2022-12-13T04:49:03;42.38;;;16.92;;
33138;SDS011;19501;50.948;5.316;2022-12-13T04:51:29;48.42;;;16.38;;
33138;SDS011;19501;50.948;5.316;2022-12-13T04:53:55;41.10;;;15.95;;
33138;SDS011;19501;50.948;5.316;2022-12-13T04:56:21;40.15;;;15.88;;
33138;SDS011;19501;50.948;5.316;2022-12-13T04:58:47;47.08;;;16.90;;
33138;SDS011;19501;50.948;5.316;2022-12-13T05:01:12;44.47;;;16.20;;
33138;SDS011;19501;50.948;5.316;2022-12-13T05:03:38;40.58;;;17.75;;
33138;SDS011;19501;50.948;5.316;2022-12-13T05:06:04;40.95;;;14.70;;
33138;SDS011;19501;50.948;5.316;2022-12-13T05:08:31;39.30;;;16.02;;
33138;SDS011;19501;50.948;5.316;2022-12-13T05:10:56;44.63;;;17.13;;
33138;SDS011;19501;50.948;5.316;2022-12-13T05:13:22;40.38;;;15.95;;
33138;SDS011;19501;50.948;5.316;2022-12-13T05:15:58;44.75;;;15.82;;
33138;SDS011;19501;50.948;5.316;2022-12-13T05:18:28;42.40;;;15.82;;
33138;SDS011;19501;50.948;5.316;2022-12-13T05:20:54;44.00;;;17.27;;
33138;SDS011;19501;50.948;5.316;2022-12-13T05:23:20;44.30;;;16.88;;
33138;SDS011;19501;50.948;5.316;2022-12-13T05:25:48;49.55;;;17.77;;
33138;SDS011;19501;50.948;5.316;2022-12-13T05:28:14;43.47;;;16.13;;
33138;SDS011;19501;50.948;5.316;2022-12-13T05:30:40;41.35;;;15.98;;
33138;SDS011;19501;50.948;5.316;2022-12-13T05:33:07;43.13;;;17.25;;
33138;SDS011;19501;50.948;5.316;2022-12-13T05:35:34;47.38;;;14.93;;
33138;SDS011;19501;50.948;5.316;2022-12-13T05:38:00;41.58;;;16.73;;
33138;SDS011;19501;50.948;5.316;2022-12-13T05:40:27;46.90;;;16.40;;
33138;SDS011;19501;50.948;5.316;2022-12-13T05:42:54;48.25;;;16.73;;
33138;SDS011;19501;50.948;5.316;2022-12-13T05:45:21;48.25;;;17.17;;
33138;SDS011;19501;50.948;5.316;2022-12-13T05:47:47;44.90;;;15.65;;
33138;SDS011;19501;50.948;5.316;2022-12-13T05:50:14;38.95;;;16.10;;
33138;SDS011;19501;50.948;5.316;2022-12-13T05:52:43;41.00;;;15.95;;
33138;SDS011;19501;50.948;5.316;2022-12-13T05:55:09;41.50;;;16.65;;
33138;SDS011;19501;50.948;5.316;2022-12-13T05:57:36;38.88;;;15.82;;
33138;SDS011;19501;50.948;5.316;2022-12-13T06:00:03;42.30;;;17.48;;
33138;SDS011;19501;50.948;5.316;2022-12-13T06:02:31;42.17;;;17.15;;
33138;SDS011;19501;50.948;5.316;2022-12-13T06:05:00;42.92;;;15.88;;
33138;SDS011;19501;50.948;5.316;2022-12-13T06:07:26;47.63;;;16.00;;
33138;SDS011;19501;50.948;5.316;2022-12-13T06:09:52;44.47;;;15.73;;
33138;SDS011;19501;50.948;5.316;2022-12-13T06:12:20;41.95;;;15.95;;
33138;SDS011;19501;50.948;5.316;2022-12-13T06:14:45;41.78;;;15.95;;
33138;SDS011;19501;50.948;5.316;2022-12-13T06:17:13;44.83;;;15.63;;
33138;SDS011;19501;50.948;5.316;2022-12-13T06:19:39;41.63;;;15.82;;
33138;SDS011;19501;50.948;5.316;2022-12-13T06:22:04;40.75;;;16.80;;
33138;SDS011;19501;50.948;5.316;2022-12-13T06:24:30;43.13;;;17.48;;
33138;SDS011;19501;50.948;5.316;2022-12-13T06:26:56;43.95;;;17.63;;
33138;SDS011;19501;50.948;5.316;2022-12-13T06:29:22;41.72;;;16.08;;
33138;SDS011;19501;50.948;5.316;2022-12-13T06:31:52;43.38;;;17.65;;
33138;SDS011;19501;50.948;5.316;2022-12-13T06:34:20;35.47;;;14.27;;
33138;SDS011;19501;50.948;5.316;2022-12-13T06:36:46;39.92;;;14.73;;
33138;SDS011;19501;50.948;5.316;2022-12-13T06:39:12;46.40;;;18.70;;
33138;SDS011;19501;50.948;5.316;2022-12-13T06:41:39;46.92;;;17.52;;
33138;SDS011;19501;50.948;5.316;2022-12-13T06:44:06;43.78;;;15.82;;
33138;SDS011;19501;50.948;5.316;2022-12-13T06:46:32;40.03;;;16.83;;
33138;SDS011;19501;50.948;5.316;2022-12-13T06:48:59;43.70;;;16.80;;
33138;SDS011;19501;50.948;5.316;2022-12-13T06:51:25;41.55;;;18.10;;
33138;SDS011;19501;50.948;5.316;2022-12-13T06:53:52;50.22;;;20.63;;
33138;SDS011;19501;50.948;5.316;2022-12-13T06:56:20;49.35;;;20.38;;
33138;SDS011;19501;50.948;5.316;2022-12-13T06:58:46;40.10;;;17.20;;
33138;SDS011;19501;50.948;5.316;2022-12-13T07:01:15;43.95;;;17.55;;
33138;SDS011;19501;50.948;5.316;2022-12-13T07:03:43;49.70;;;20.52;;
33138;SDS011;19501;50.948;5.316;2022-12-13T07:06:12;47.78;;;19.58;;
33138;SDS011;19501;50.948;5.316;2022-12-13T07:08:40;38.80;;;17.15;;
33138;SDS011;19501;50.948;5.316;2022-12-13T07:11:07;44.05;;;18.00;;
33138;SDS011;19501;50.948;5.316;2022-12-13T07:13:37;44.75;;;17.90;;
33138;SDS011;19501;50.948;5.316;2022-12-13T07:16:03;43.95;;;17.88;;
33138;SDS011;19501;50.948;5.316;2022-12-13T07:18:29;42.38;;;16.92;;
33138;SDS011;19501;50.948;5.316;2022-12-13T07:20:56;50.53;;;17.77;;
33138;SDS011;19501;50.948;5.316;2022-12-13T07:23:22;47.65;;;17.02;;
33138;SDS011;19501;50.948;5.316;2022-12-13T07:25:54;47.65;;;18.33;;
33138;SDS011;19501;50.948;5.316;2022-12-13T07:28:20;41.35;;;13.77;;
33138;SDS011;19501;50.948;5.316;2022-12-13T07:30:46;48.58;;;18.67;;
33138;SDS011;19501;50.948;5.316;2022-12-13T07:33:13;44.70;;;19.35;;
33138;SDS011;19501;50.948;5.316;2022-12-13T07:35:39;46.72;;;19.15;;
33138;SDS011;19501;50.948;5.316;2022-12-13T07:38:06;48.50;;;17.70;;
33138;SDS011;19501;50.948;5.316;2022-12-13T07:40:33;47.95;;;19.23;;
33138;SDS011;19501;50.948;5.316;2022-12-13T07:43:00;45.53;;;18.98;;
33138;SDS011;19501;50.948;5.316;2022-12-13T07:45:25;45.47;;;18.42;;
33138;SDS011;19501;50.948;5.316;2022-12-13T07:47:51;57.47;;;20.90;;
33138;SDS011;19501;50.948;5.316;2022-12-13T07:50:17;48.38;;;19.52;;
33138;SDS011;19501;50.948;5.316;2022-12-13T07:52:47;51.53;;;20.25;;
33138;SDS011;19501;50.948;5.316;2022-12-13T07:55:13;47.85;;;19.05;;
33138;SDS011;19501;50.948;5.316;2022-12-13T08:00:11;42.42;;;17.10;;
33138;SDS011;19501;50.948;5.316;2022-12-13T08:02:38;52.03;;;19.17;;
33138;SDS011;19501;50.948;5.316;2022-12-13T08:05:05;56.88;;;20.27;;
33138;SDS011;19501;50.948;5.316;2022-12-13T08:07:31;55.60;;;20.02;;
33138;SDS011;19501;50.948;5.316;2022-12-13T08:09:56;50.60;;;20.45;;
33138;SDS011;19501;50.948;5.316;2022-12-13T08:12:22;53.45;;;20.17;;
33138;SDS011;19501;50.948;5.316;2022-12-13T08:14:48;50.35;;;21.77;;
33138;SDS011;19501;50.948;5.316;2022-12-13T08:17:14;56.22;;;22.00;;
33138;SDS011;19501;50.948;5.316;2022-12-13T08:19:42;56.97;;;21.05;;
33138;SDS011;19501;50.948;5.316;2022-12-13T08:22:11;59.92;;;22.05;;
33138;SDS011;19501;50.948;5.316;2022-12-13T08:24:37;60.67;;;22.85;;
33138;SDS011;19501;50.948;5.316;2022-12-13T08:27:03;60.47;;;23.70;;
33138;SDS011;19501;50.948;5.316;2022-12-13T08:29:30;69.50;;;26.02;;
33138;SDS011;19501;50.948;5.316;2022-12-13T08:31:58;63.58;;;23.90;;
33138;SDS011;19501;50.948;5.316;2022-12-13T08:34:24;58.25;;;23.80;;
33138;SDS011;19501;50.948;5.316;2022-12-13T08:36:49;65.88;;;25.98;;
33138;SDS011;19501;50.948;5.316;2022-12-13T08:39:16;65.72;;;25.52;;
33138;SDS011;19501;50.948;5.316;2022-12-13T08:41:42;67.05;;;25.40;;
33138;SDS011;19501;50.948;5.316;2022-12-13T08:44:08;68.53;;;25.98;;
33138;SDS011;19501;50.948;5.316;2022-12-13T08:46:33;65.13;;;26.67;;
33138;SDS011;19501;50.948;5.316;2022-12-13T08:48:59;74.15;;;25.05;;
33138;SDS011;19501;50.948;5.316;2022-12-13T08:51:25;66.35;;;25.88;;
33138;SDS011;19501;50.948;5.316;2022-12-13T08:53:51;73.20;;;28.58;;
33138;SDS011;19501;50.948;5.316;2022-12-13T08:56:17;63.65;;;26.65;;
33138;SDS011;19501;50.948;5.316;2022-12-13T08:58:47;69.38;;;26.20;;
33138;SDS011;19501;50.948;5.316;2022-12-13T09:01:14;68.50;;;27.13;;
33138;SDS011;19501;50.948;5.316;2022-12-13T09:03:40;66.38;;;26.55;;
33138;SDS011;19501;50.948;5.316;2022-12-13T09:06:09;66.95;;;25.50;;
33138;SDS011;19501;50.948;5.316;2022-12-13T09:08:38;72.25;;;26.55;;
33138;SDS011;19501;50.948;5.316;2022-12-13T09:11:05;68.18;;;26.15;;
33138;SDS011;19501;50.948;5.316;2022-12-13T09:13:32;70.88;;;26.88;;
33138;SDS011;19501;50.948;5.316;2022-12-13T09:16:06;71.95;;;27.23;;
33138;SDS011;19501;50.948;5.316;2022-12-13T09:18:34;75.78;;;27.40;;
33138;SDS011;19501;50.948;5.316;2022-12-13T09:21:04;73.28;;;28.02;;
33138;SDS011;19501;50.948;5.316;2022-12-13T09:23:34;74.25;;;27.13;;
33138;SDS011;19501;50.948;5.316;2022-12-13T09:26:00;80.40;;;26.42;;
33138;SDS011;19501;50.948;5.316;2022-12-13T09:28:26;76.10;;;29.98;;
33138;SDS011;19501;50.948;5.316;2022-12-13T09:30:53;78.03;;;29.42;;
33138;SDS011;19501;50.948;5.316;2022-12-13T09:33:19;77.95;;;30.02;;
33138;SDS011;19501;50.948;5.316;2022-12-13T09:35:45;77.13;;;30.80;;
33138;SDS011;19501;50.948;5.316;2022-12-13T09:38:11;79.53;;;28.27;;
33138;SDS011;19501;50.948;5.316;2022-12-13T09:40:38;82.43;;;29.83;;
33138;SDS011;19501;50.948;5.316;2022-12-13T09:43:09;75.70;;;29.95;;
33138;SDS011;19501;50.948;5.316;2022-12-13T09:45:39;62.93;;;23.23;;
33138;SDS011;19501;50.948;5.316;2022-12-13T09:48:07;79.45;;;29.05;;
33138;SDS011;19501;50.948;5.316;2022-12-13T09:50:34;84.93;;;31.15;;
33138;SDS011;19501;50.948;5.316;2022-12-13T09:53:00;82.50;;;30.40;;
33138;SDS011;19501;50.948;5.316;2022-12-13T09:55:31;81.55;;;34.63;;
33138;SDS011;19501;50.948;5.316;2022-12-13T09:58:27;80.88;;;30.38;;
33138;SDS011;19501;50.948;5.316;2022-12-13T10:00:58;77.35;;;31.00;;
33138;SDS011;19501;50.948;5.316;2022-12-13T10:03:24;94.18;;;32.70;;
33138;SDS011;19501;50.948;5.316;2022-12-13T10:05:57;76.38;;;28.52;;
33138;SDS011;19501;50.948;5.316;2022-12-13T10:08:35;73.28;;;31.65;;
33138;SDS011;19501;50.948;5.316;2022-12-13T10:11:05;77.15;;;30.13;;
33138;SDS011;19501;50.948;5.316;2022-12-13T10:13:37;78.25;;;30.50;;
33138;SDS011;19501;50.948;5.316;2022-12-13T10:18:55;77.25;;;30.15;;
33138;SDS011;19501;50.948;5.316;2022-12-13T10:21:28;73.55;;;30.60;;
33138;SDS011;19501;50.948;5.316;2022-12-13T10:24:47;81.15;;;30.85;;
33138;SDS011;19501;50.948;5.316;2022-12-13T10:26:51;85.13;;;31.50;;
33138;SDS011;19501;50.948;5.316;2022-12-13T10:29:17;75.70;;;31.90;;
33138;SDS011;19501;50.948;5.316;2022-12-13T10:31:48;77.38;;;32.30;;
33138;SDS011;19501;50.948;5.316;2022-12-13T10:36:50;74.60;;;29.73;;
33138;SDS011;19501;50.948;5.316;2022-12-13T10:39:17;75.97;;;30.42;;
33138;SDS011;19501;50.948;5.316;2022-12-13T10:42:04;79.15;;;30.20;;
33138;SDS011;19501;50.948;5.316;2022-12-13T10:44:43;72.38;;;30.33;;
33138;SDS011;19501;50.948;5.316;2022-12-13T10:47:17;71.38;;;29.08;;
33138;SDS011;19501;50.948;5.316;2022-12-13T10:49:55;73.57;;;28.25;;
33138;SDS011;19501;50.948;5.316;2022-12-13T10:52:30;72.40;;;28.55;;
33138;SDS011;19501;50.948;5.316;2022-12-13T10:55:06;68.38;;;28.15;;
33138;SDS011;19501;50.948;5.316;2022-12-13T10:57:57;71.18;;;27.35;;
33138;SDS011;19501;50.948;5.316;2022-12-13T11:00:37;69.68;;;28.55;;
33138;SDS011;19501;50.948;5.316;2022-12-13T11:03:06;75.35;;;29.23;;
33138;SDS011;19501;50.948;5.316;2022-12-13T11:05:34;67.47;;;28.52;;
33138;SDS011;19501;50.948;5.316;2022-12-13T11:08:15;71.22;;;29.80;;
33138;SDS011;19501;50.948;5.316;2022-12-13T11:10:57;68.63;;;27.85;;
33138;SDS011;19501;50.948;5.316;2022-12-13T11:13:30;71.82;;;29.15;;
33138;SDS011;19501;50.948;5.316;2022-12-13T11:18:52;62.75;;;25.88;;
33138;SDS011;19501;50.948;5.316;2022-12-13T11:21:30;69.95;;;27.27;;
33138;SDS011;19501;50.948;5.316;2022-12-13T11:24:02;64.00;;;27.88;;
33138;SDS011;19501;50.948;5.316;2022-12-13T11:26:32;55.97;;;25.20;;
33138;SDS011;19501;50.948;5.316;2022-12-13T11:29:10;58.90;;;25.90;;
33138;SDS011;19501;50.948;5.316;2022-12-13T11:39:59;50.67;;;24.08;;
33138;SDS011;19501;50.948;5.316;2022-12-13T11:42:43;51.88;;;25.83;;
33138;SDS011;19501;50.948;5.316;2022-12-13T11:45:17;55.08;;;26.25;;
33138;SDS011;19501;50.948;5.316;2022-12-13T11:50:35;47.38;;;24.55;;
33138;SDS011;19501;50.948;5.316;2022-12-13T11:55:41;50.13;;;23.92;;
33138;SDS011;19501;50.948;5.316;2022-12-13T12:00:49;51.00;;;23.95;;
33138;SDS011;19501;50.948;5.316;2022-12-13T12:03:25;50.75;;;23.35;;
33138;SDS011;19501;50.948;5.316;2022-12-13T12:05:54;50.30;;;24.83;;
33138;SDS011;19501;50.948;5.316;2022-12-13T12:09:01;53.20;;;25.77;;
33138;SDS011;19501;50.948;5.316;2022-12-13T12:11:31;55.83;;;25.20;;
33138;SDS011;19501;50.948;5.316;2022-12-13T12:14:08;53.45;;;24.80;;
33138;SDS011;19501;50.948;5.316;2022-12-13T12:16:40;53.10;;;24.50;;
33138;SDS011;19501;50.948;5.316;2022-12-13T12:19:14;51.45;;;23.50;;
33138;SDS011;19501;50.948;5.316;2022-12-13T12:21:48;53.33;;;23.27;;
33138;SDS011;19501;50.948;5.316;2022-12-13T13:03:37;54.88;;;22.15;;
33138;SDS011;19501;50.948;5.316;2022-12-13T13:09:24;57.03;;;22.23;;
33138;SDS011;19501;50.948;5.316;2022-12-13T13:11:51;55.55;;;22.67;;
33138;SDS011;19501;50.948;5.316;2022-12-13T13:14:27;54.97;;;22.98;;
33138;SDS011;19501;50.948;5.316;2022-12-13T13:16:59;51.05;;;21.73;;
33138;SDS011;19501;50.948;5.316;2022-12-13T13:19:46;54.90;;;21.70;;
33138;SDS011;19501;50.948;5.316;2022-12-13T13:22:26;55.55;;;21.38;;
33138;SDS011;19501;50.948;5.316;2022-12-13T13:25:20;49.58;;;21.38;;
33138;SDS011;19501;50.948;5.316;2022-12-13T13:27:46;51.28;;;21.17;;
33138;SDS011;19501;50.948;5.316;2022-12-13T13:30:22;51.80;;;21.10;;
33138;SDS011;19501;50.948;5.316;2022-12-13T13:32:50;53.22;;;20.55;;
33138;SDS011;19501;50.948;5.316;2022-12-13T13:37:53;57.22;;;21.38;;
33138;SDS011;19501;50.948;5.316;2022-12-13T13:40:29;48.63;;;23.13;;
33138;SDS011;19501;50.948;5.316;2022-12-13T14:08:13;59.17;;;23.98;;
33138;SDS011;19501;50.948;5.316;2022-12-13T14:13:28;58.17;;;23.38;;
33138;SDS011;19501;50.948;5.316;2022-12-13T14:19:32;52.77;;;21.80;;
33138;SDS011;19501;50.948;5.316;2022-12-13T14:24:55;59.03;;;24.02;;
33138;SDS011;19501;50.948;5.316;2022-12-13T14:30:17;59.63;;;23.98;;
33138;SDS011;19501;50.948;5.316;2022-12-13T14:32:53;55.78;;;24.73;;
33138;SDS011;19501;50.948;5.316;2022-12-13T14:35:24;54.17;;;23.48;;
33138;SDS011;19501;50.948;5.316;2022-12-13T14:37:56;57.20;;;23.45;;
33138;SDS011;19501;50.948;5.316;2022-12-13T14:43:01;58.13;;;22.63;;
33138;SDS011;19501;50.948;5.316;2022-12-13T14:45:34;54.72;;;22.67;;
33138;SDS011;19501;50.948;5.316;2022-12-13T14:48:03;61.08;;;24.70;;
33138;SDS011;19501;50.948;5.316;2022-12-13T14:50:32;58.45;;;25.45;;
33138;SDS011;19501;50.948;5.316;2022-12-13T14:52:59;54.40;;;22.55;;
33138;SDS011;19501;50.948;5.316;2022-12-13T14:55:31;55.95;;;21.65;;
33138;SDS011;19501;50.948;5.316;2022-12-13T14:58:01;57.85;;;24.35;;
33138;SDS011;19501;50.948;5.316;2022-12-13T15:00:30;63.85;;;28.52;;
33138;SDS011;19501;50.948;5.316;2022-12-13T15:02:58;59.47;;;24.73;;
33138;SDS011;19501;50.948;5.316;2022-12-13T15:05:29;59.65;;;26.98;;
33138;SDS011;19501;50.948;5.316;2022-12-13T15:08:06;66.57;;;27.27;;
33138;SDS011;19501;50.948;5.316;2022-12-13T15:10:38;63.22;;;25.73;;
33138;SDS011;19501;50.948;5.316;2022-12-13T15:13:06;55.78;;;24.20;;
33138;SDS011;19501;50.948;5.316;2022-12-13T15:15:49;56.08;;;26.50;;
33138;SDS011;19501;50.948;5.316;2022-12-13T15:18:19;43.20;;;20.45;;
33138;SDS011;19501;50.948;5.316;2022-12-13T15:20:48;57.58;;;25.73;;
33138;SDS011;19501;50.948;5.316;2022-12-13T15:26:09;58.30;;;23.50;;
33138;SDS011;19501;50.948;5.316;2022-12-13T15:28:44;66.78;;;27.10;;
33138;SDS011;19501;50.948;5.316;2022-12-13T15:31:12;60.22;;;27.27;;
33138;SDS011;19501;50.948;5.316;2022-12-13T15:33:39;56.17;;;24.42;;
33138;SDS011;19501;50.948;5.316;2022-12-13T15:46:42;52.45;;;20.90;;
33138;SDS011;19501;50.948;5.316;2022-12-13T15:54:40;52.25;;;21.70;;
33138;SDS011;19501;50.948;5.316;2022-12-13T15:59:39;50.20;;;21.52;;
33138;SDS011;19501;50.948;5.316;2022-12-13T16:02:17;49.00;;;20.05;;
33138;SDS011;19501;50.948;5.316;2022-12-13T16:04:47;58.70;;;22.90;;
33138;SDS011;19501;50.948;5.316;2022-12-13T16:07:31;58.38;;;23.20;;
33138;SDS011;19501;50.948;5.316;2022-12-13T16:10:05;52.30;;;20.95;;
33138;SDS011;19501;50.948;5.316;2022-12-13T16:12:42;52.55;;;21.58;;
33138;SDS011;19501;50.948;5.316;2022-12-13T16:15:24;50.35;;;21.90;;
33138;SDS011;19501;50.948;5.316;2022-12-13T16:17:52;50.95;;;22.33;;
33138;SDS011;19501;50.948;5.316;2022-12-13T16:20:20;51.90;;;21.23;;
33138;SDS011;19501;50.948;5.316;2022-12-13T16:22:47;53.35;;;21.80;;
33138;SDS011;19501;50.948;5.316;2022-12-13T16:25:16;52.28;;;21.02;;
33138;SDS011;19501;50.948;5.316;2022-12-13T16:27:44;52.25;;;21.55;;
33138;SDS011;19501;50.948;5.316;2022-12-13T16:30:20;51.42;;;21.58;;
33138;SDS011;19501;50.948;5.316;2022-12-13T16:32:49;54.33;;;21.70;;
33138;SDS011;19501;50.948;5.316;2022-12-13T16:35:15;55.15;;;23.45;;
33138;SDS011;19501;50.948;5.316;2022-12-13T16:37:42;52.42;;;22.90;;
33138;SDS011;19501;50.948;5.316;2022-12-13T16:42:58;59.88;;;24.80;;
33138;SDS011;19501;50.948;5.316;2022-12-13T16:45:27;53.55;;;24.10;;
33138;SDS011;19501;50.948;5.316;2022-12-13T16:48:04;51.47;;;21.25;;
33138;SDS011;19501;50.948;5.316;2022-12-13T16:50:31;48.08;;;21.42;;
33138;SDS011;19501;50.948;5.316;2022-12-13T16:52:57;51.83;;;21.00;;
33138;SDS011;19501;50.948;5.316;2022-12-13T16:55:23;53.92;;;22.70;;
33138;SDS011;19501;50.948;5.316;2022-12-13T16:57:53;55.78;;;22.23;;
33138;SDS011;19501;50.948;5.316;2022-12-13T17:00:24;46.05;;;19.15;;
33138;SDS011;19501;50.948;5.316;2022-12-13T17:02:51;53.78;;;21.55;;
33138;SDS011;19501;50.948;5.316;2022-12-13T17:05:18;52.50;;;22.30;;
33138;SDS011;19501;50.948;5.316;2022-12-13T17:07:43;57.55;;;21.70;;
33138;SDS011;19501;50.948;5.316;2022-12-13T17:10:12;57.53;;;22.38;;
33138;SDS011;19501;50.948;5.316;2022-12-13T17:12:38;50.92;;;21.27;;
33138;SDS011;19501;50.948;5.316;2022-12-13T17:15:04;53.45;;;20.52;;
33138;SDS011;19501;50.948;5.316;2022-12-13T17:17:30;51.45;;;20.50;;
33138;SDS011;19501;50.948;5.316;2022-12-13T17:19:57;56.80;;;22.33;;
33138;SDS011;19501;50.948;5.316;2022-12-13T17:22:22;52.28;;;20.92;;
33138;SDS011;19501;50.948;5.316;2022-12-13T17:24:48;51.50;;;19.80;;
33138;SDS011;19501;50.948;5.316;2022-12-13T17:27:13;44.38;;;19.30;;